sensor_id;sensor_type;location;lat;lon;timestamp;pressure;altitude;pressure_sealevel;temperature;humidity
11347;BME280;5728;42.722;23.258;2023-02-13T00:02:23;96503.41;;;0.26;98.11
11347;BME280;5728;42.722;23.258;2023-02-13T00:04:49;96509.78;;;0.18;98.26
11347;BME280;5728;42.722;23.258;2023-02-13T00:07:16;96510.28;;;0.27;98.36
11347;BME280;5728;42.722;23.258;2023-02-13T00:09:44;96511.84;;;0.41;98.21
11347;BME280;5728;42.722;23.258;2023-02-13T00:12:11;96512.50;;;0.21;97.73
11347;BME280;5728;42.722;23.258;2023-02-13T00:14:38;96509.00;;;0.19;97.79
11347;BME280;5728;42.722;23.258;2023-02-13T00:17:05;96512.66;;;0.24;97.76
11347;BME280;5728;42.722;23.258;2023-02-13T00:19:32;96513.47;;;-0.25;97.69
11347;BME280;5728;42.722;23.258;2023-02-13T00:21:59;96514.09;;;0.19;97.79
11347;BME280;5728;42.722;23.258;2023-02-13T00:24:26;96510.75;;;0.04;97.62
11347;BME280;5728;42.722;23.258;2023-02-13T00:26:54;96504.78;;;0.53;97.04
11347;BME280;5728;42.722;23.258;2023-02-13T00:29:21;96496.75;;;0.80;95.73
11347;BME280;5728;42.722;23.258;2023-02-13T00:31:47;96510.63;;;0.85;96.11
11347;BME280;5728;42.722;23.258;2023-02-13T00:34:14;96509.78;;;0.68;94.87
11347;BME280;5728;42.722;23.258;2023-02-13T00:36:41;96513.66;;;0.44;94.86
11347;BME280;5728;42.722;23.258;2023-02-13T00:39:10;96505.22;;;0.79;96.19
11347;BME280;5728;42.722;23.258;2023-02-13T00:41:37;96515.38;;;0.11;95.12
11347;BME280;5728;42.722;23.258;2023-02-13T00:44:05;96502.31;;;-0.11;96.40
11347;BME280;5728;42.722;23.258;2023-02-13T00:46:32;96520.50;;;0.61;96.67
11347;BME280;5728;42.722;23.258;2023-02-13T00:48:59;96521.72;;;0.85;94.86
11347;BME280;5728;42.722;23.258;2023-02-13T00:51:25;96530.84;;;-0.18;94.04
11347;BME280;5728;42.722;23.258;2023-02-13T00:53:52;96513.59;;;-0.22;96.09
11347;BME280;5728;42.722;23.258;2023-02-13T00:56:19;96516.16;;;0.26;95.68
11347;BME280;5728;42.722;23.258;2023-02-13T00:58:45;96521.75;;;0.69;93.61
11347;BME280;5728;42.722;23.258;2023-02-13T01:01:13;96523.94;;;0.61;92.92
11347;BME280;5728;42.722;23.258;2023-02-13T01:03:40;96528.06;;;-0.23;93.05
11347;BME280;5728;42.722;23.258;2023-02-13T01:06:07;96528.06;;;-0.53;95.83
11347;BME280;5728;42.722;23.258;2023-02-13T01:08:37;96526.19;;;-0.41;95.76
11347;BME280;5728;42.722;23.258;2023-02-13T01:11:04;96516.69;;;-0.75;96.45
11347;BME280;5728;42.722;23.258;2023-02-13T01:13:31;96527.53;;;-0.79;96.58
11347;BME280;5728;42.722;23.258;2023-02-13T01:15:58;96522.97;;;-0.53;97.04
11347;BME280;5728;42.722;23.258;2023-02-13T01:18:26;96525.41;;;-0.55;97.53
11347;BME280;5728;42.722;23.258;2023-02-13T01:20:58;96528.69;;;-0.57;97.31
11347;BME280;5728;42.722;23.258;2023-02-13T01:23:29;96529.69;;;-0.39;97.49
11347;BME280;5728;42.722;23.258;2023-02-13T01:25:55;96532.25;;;-0.07;97.94
11347;BME280;5728;42.722;23.258;2023-02-13T01:28:22;96533.38;;;0.30;96.98
11347;BME280;5728;42.722;23.258;2023-02-13T01:30:52;96533.28;;;0.45;96.84
11347;BME280;5728;42.722;23.258;2023-02-13T01:33:19;96527.81;;;0.37;95.64
11347;BME280;5728;42.722;23.258;2023-02-13T01:35:48;96540.13;;;0.62;95.77
11347;BME280;5728;42.722;23.258;2023-02-13T01:38:15;96535.84;;;0.79;94.73
11347;BME280;5728;42.722;23.258;2023-02-13T01:40:45;96536.16;;;0.85;94.25
11347;BME280;5728;42.722;23.258;2023-02-13T01:43:12;96533.25;;;0.95;94.49
11347;BME280;5728;42.722;23.258;2023-02-13T01:45:40;96539.25;;;0.95;92.42
11347;BME280;5728;42.722;23.258;2023-02-13T01:48:12;96544.50;;;1.16;92.66
11347;BME280;5728;42.722;23.258;2023-02-13T01:50:43;96538.66;;;1.54;90.57
11347;BME280;5728;42.722;23.258;2023-02-13T01:53:19;96532.66;;;1.71;87.45
11347;BME280;5728;42.722;23.258;2023-02-13T01:55:52;96543.50;;;1.84;87.85
11347;BME280;5728;42.722;23.258;2023-02-13T01:58:23;96545.53;;;1.91;87.29
11347;BME280;5728;42.722;23.258;2023-02-13T02:00:51;96578.38;;;1.82;87.35
11347;BME280;5728;42.722;23.258;2023-02-13T02:03:22;96537.31;;;1.79;88.31
11347;BME280;5728;42.722;23.258;2023-02-13T02:05:50;96546.63;;;1.97;86.44
11347;BME280;5728;42.722;23.258;2023-02-13T02:08:19;96530.53;;;0.58;88.35
11347;BME280;5728;42.722;23.258;2023-02-13T02:10:46;96542.13;;;0.68;91.03
11347;BME280;5728;42.722;23.258;2023-02-13T02:13:15;96539.63;;;0.69;91.74
11347;BME280;5728;42.722;23.258;2023-02-13T02:15:43;96537.09;;;0.87;92.12
11347;BME280;5728;42.722;23.258;2023-02-13T02:18:13;96542.72;;;0.80;92.44
11347;BME280;5728;42.722;23.258;2023-02-13T02:21:13;96537.63;;;0.97;92.36
11347;BME280;5728;42.722;23.258;2023-02-13T02:24:09;96540.03;;;0.60;92.18
11347;BME280;5728;42.722;23.258;2023-02-13T02:27:04;96535.34;;;0.86;92.54
11347;BME280;5728;42.722;23.258;2023-02-13T02:30:10;96545.34;;;0.99;92.78
11347;BME280;5728;42.722;23.258;2023-02-13T02:32:54;96538.91;;;0.72;92.55
11347;BME280;5728;42.722;23.258;2023-02-13T02:35:32;96545.09;;;0.93;92.86
11347;BME280;5728;42.722;23.258;2023-02-13T02:38:08;96541.72;;;0.94;92.16
11347;BME280;5728;42.722;23.258;2023-02-13T02:40:56;96547.34;;;1.04;92.71
11347;BME280;5728;42.722;23.258;2023-02-13T02:43:37;96551.06;;;1.11;92.37
11347;BME280;5728;42.722;23.258;2023-02-13T02:46:11;96551.16;;;1.30;92.58
11347;BME280;5728;42.722;23.258;2023-02-13T02:48:48;96552.66;;;1.09;91.84
11347;BME280;5728;42.722;23.258;2023-02-13T02:51:39;96555.81;;;1.21;91.04
11347;BME280;5728;42.722;23.258;2023-02-13T02:54:10;96559.94;;;1.35;90.40
11347;BME280;5728;42.722;23.258;2023-02-13T02:56:56;96604.50;;;1.24;90.64
11347;BME280;5728;42.722;23.258;2023-02-13T02:59:27;96566.38;;;1.11;89.83
11347;BME280;5728;42.722;23.258;2023-02-13T03:02:14;96559.53;;;0.92;90.17
11347;BME280;5728;42.722;23.258;2023-02-13T03:05:01;96559.00;;;0.65;91.42
11347;BME280;5728;42.722;23.258;2023-02-13T03:07:45;96562.41;;;0.32;90.57
11347;BME280;5728;42.722;23.258;2023-02-13T03:10:16;96558.63;;;0.92;91.85
11347;BME280;5728;42.722;23.258;2023-02-13T03:13:05;96556.91;;;1.08;90.62
11347;BME280;5728;42.722;23.258;2023-02-13T03:15:48;96565.59;;;1.12;90.14
11347;BME280;5728;42.722;23.258;2023-02-13T03:18:35;96552.50;;;1.06;89.94
11347;BME280;5728;42.722;23.258;2023-02-13T03:21:28;96560.41;;;0.93;90.72
11347;BME280;5728;42.722;23.258;2023-02-13T03:24:23;96557.00;;;0.76;91.96
11347;BME280;5728;42.722;23.258;2023-02-13T03:26:56;96561.56;;;0.65;92.69
11347;BME280;5728;42.722;23.258;2023-02-13T03:29:34;96572.63;;;0.82;91.94
11347;BME280;5728;42.722;23.258;2023-02-13T03:32:27;96565.34;;;0.90;90.81
11347;BME280;5728;42.722;23.258;2023-02-13T03:35:06;96572.19;;;0.91;90.95
11347;BME280;5728;42.722;23.258;2023-02-13T03:38:02;96583.16;;;1.06;90.00
11347;BME280;5728;42.722;23.258;2023-02-13T03:40:36;96568.84;;;0.92;89.65
11347;BME280;5728;42.722;23.258;2023-02-13T03:43:30;96558.75;;;0.77;91.03
11347;BME280;5728;42.722;23.258;2023-02-13T03:45:58;96564.31;;;0.86;91.85
11347;BME280;5728;42.722;23.258;2023-02-13T03:48:30;96581.69;;;0.43;91.60
11347;BME280;5728;42.722;23.258;2023-02-13T03:51:19;96558.00;;;0.62;91.82
11347;BME280;5728;42.722;23.258;2023-02-13T03:53:52;96562.06;;;0.26;93.08
11347;BME280;5728;42.722;23.258;2023-02-13T03:56:21;96576.44;;;0.24;93.68
11347;BME280;5728;42.722;23.258;2023-02-13T03:59:06;96567.00;;;-0.09;93.94
11347;BME280;5728;42.722;23.258;2023-02-13T04:01:47;96560.31;;;0.09;95.05
11347;BME280;5728;42.722;23.258;2023-02-13T04:04:21;96568.13;;;0.44;95.58
11347;BME280;5728;42.722;23.258;2023-02-13T04:06:52;96566.53;;;0.62;94.58
11347;BME280;5728;42.722;23.258;2023-02-13T04:09:23;96565.88;;;0.67;92.83
11347;BME280;5728;42.722;23.258;2023-02-13T04:11:55;96570.28;;;0.87;91.45
11347;BME280;5728;42.722;23.258;2023-02-13T04:14:27;96570.91;;;0.99;90.12
11347;BME280;5728;42.722;23.258;2023-02-13T04:16:58;96571.66;;;1.14;89.12
11347;BME280;5728;42.722;23.258;2023-02-13T04:19:28;96566.47;;;1.12;89.44
11347;BME280;5728;42.722;23.258;2023-02-13T04:21:59;96568.09;;;1.28;88.11
11347;BME280;5728;42.722;23.258;2023-02-13T04:24:28;96577.53;;;0.61;88.10
11347;BME280;5728;42.722;23.258;2023-02-13T04:26:55;96562.97;;;0.93;88.11
11347;BME280;5728;42.722;23.258;2023-02-13T04:29:24;96541.50;;;0.73;88.65
11347;BME280;5728;42.722;23.258;2023-02-13T04:31:51;96581.66;;;1.09;89.19
11347;BME280;5728;42.722;23.258;2023-02-13T04:34:18;96563.78;;;1.27;87.81
11347;BME280;5728;42.722;23.258;2023-02-13T04:36:44;96575.50;;;1.06;86.99
11347;BME280;5728;42.722;23.258;2023-02-13T04:39:11;96577.44;;;1.10;87.36
11347;BME280;5728;42.722;23.258;2023-02-13T04:41:39;96557.25;;;0.64;87.24
11347;BME280;5728;42.722;23.258;2023-02-13T04:44:06;96567.50;;;0.16;89.83
11347;BME280;5728;42.722;23.258;2023-02-13T04:46:33;96572.59;;;0.00;91.26
11347;BME280;5728;42.722;23.258;2023-02-13T04:49:00;96568.84;;;0.42;92.86
11347;BME280;5728;42.722;23.258;2023-02-13T04:51:26;96570.66;;;0.60;90.91
11347;BME280;5728;42.722;23.258;2023-02-13T04:53:53;96571.81;;;0.83;89.78
11347;BME280;5728;42.722;23.258;2023-02-13T04:56:20;96584.34;;;1.12;87.75
11347;BME280;5728;42.722;23.258;2023-02-13T04:58:48;96565.94;;;1.02;87.40
11347;BME280;5728;42.722;23.258;2023-02-13T05:01:16;96585.63;;;1.20;87.32
11347;BME280;5728;42.722;23.258;2023-02-13T05:03:43;96584.09;;;1.59;84.55
11347;BME280;5728;42.722;23.258;2023-02-13T05:06:10;96574.44;;;1.54;83.34
11347;BME280;5728;42.722;23.258;2023-02-13T05:08:36;96600.72;;;1.69;83.64
11347;BME280;5728;42.722;23.258;2023-02-13T05:11:04;96590.63;;;1.89;82.66
11347;BME280;5728;42.722;23.258;2023-02-13T05:13:31;96585.75;;;1.76;82.77
11347;BME280;5728;42.722;23.258;2023-02-13T05:15:59;96583.81;;;1.53;83.29
11347;BME280;5728;42.722;23.258;2023-02-13T05:18:26;96593.41;;;1.76;83.23
11347;BME280;5728;42.722;23.258;2023-02-13T05:20:52;96595.69;;;1.88;81.79
11347;BME280;5728;42.722;23.258;2023-02-13T05:23:36;96592.75;;;1.98;82.42
11347;BME280;5728;42.722;23.258;2023-02-13T05:26:03;96596.94;;;1.78;81.34
11347;BME280;5728;42.722;23.258;2023-02-13T05:28:30;96594.00;;;1.88;81.79
11347;BME280;5728;42.722;23.258;2023-02-13T05:31:16;96602.84;;;1.77;81.52
11347;BME280;5728;42.722;23.258;2023-02-13T05:33:43;96606.66;;;1.85;82.45
11347;BME280;5728;42.722;23.258;2023-02-13T05:36:09;96600.50;;;1.82;82.21
11347;BME280;5728;42.722;23.258;2023-02-13T05:38:36;96584.72;;;1.90;82.42
11347;BME280;5728;42.722;23.258;2023-02-13T05:41:05;96592.69;;;1.79;81.24
11347;BME280;5728;42.722;23.258;2023-02-13T05:43:32;96607.59;;;1.35;83.89
11347;BME280;5728;42.722;23.258;2023-02-13T05:46:03;96611.69;;;1.84;83.63
11347;BME280;5728;42.722;23.258;2023-02-13T05:48:32;96608.44;;;2.06;83.40
11347;BME280;5728;42.722;23.258;2023-02-13T05:51:00;96611.16;;;2.09;81.57
11347;BME280;5728;42.722;23.258;2023-02-13T05:53:27;96620.16;;;2.01;81.01
11347;BME280;5728;42.722;23.258;2023-02-13T05:55:55;96613.03;;;2.13;80.95
11347;BME280;5728;42.722;23.258;2023-02-13T05:58:21;96608.59;;;2.09;80.36
11347;BME280;5728;42.722;23.258;2023-02-13T06:00:48;96617.94;;;2.08;82.68
11347;BME280;5728;42.722;23.258;2023-02-13T06:03:15;96619.38;;;2.21;79.83
11347;BME280;5728;42.722;23.258;2023-02-13T06:05:43;96616.16;;;2.25;79.33
11347;BME280;5728;42.722;23.258;2023-02-13T06:08:10;96624.19;;;1.96;81.17
11347;BME280;5728;42.722;23.258;2023-02-13T06:10:36;96615.56;;;1.93;81.38
11347;BME280;5728;42.722;23.258;2023-02-13T06:13:03;96628.00;;;2.23;80.07
11347;BME280;5728;42.722;23.258;2023-02-13T06:15:30;96626.94;;;2.37;79.61
11347;BME280;5728;42.722;23.258;2023-02-13T06:17:57;96627.38;;;2.46;80.56
11347;BME280;5728;42.722;23.258;2023-02-13T06:20:24;96637.06;;;2.34;79.97
11347;BME280;5728;42.722;23.258;2023-02-13T06:22:52;96629.38;;;2.34;80.02
11347;BME280;5728;42.722;23.258;2023-02-13T06:25:19;96635.78;;;2.63;78.37
11347;BME280;5728;42.722;23.258;2023-02-13T06:27:46;96618.00;;;2.46;78.96
11347;BME280;5728;42.722;23.258;2023-02-13T06:30:14;96640.16;;;2.65;79.42
11347;BME280;5728;42.722;23.258;2023-02-13T06:32:41;96641.13;;;2.86;77.96
11347;BME280;5728;42.722;23.258;2023-02-13T06:35:08;96628.44;;;2.89;77.85
11347;BME280;5728;42.722;23.258;2023-02-13T06:37:35;96648.44;;;2.98;77.16
11347;BME280;5728;42.722;23.258;2023-02-13T06:40:06;96642.31;;;3.13;77.43
11347;BME280;5728;42.722;23.258;2023-02-13T06:42:33;96635.72;;;2.99;77.03
11347;BME280;5728;42.722;23.258;2023-02-13T06:44:59;96647.97;;;3.06;77.29
11347;BME280;5728;42.722;23.258;2023-02-13T06:47:26;96654.59;;;3.01;77.77
11347;BME280;5728;42.722;23.258;2023-02-13T06:49:53;96642.16;;;3.10;78.66
11347;BME280;5728;42.722;23.258;2023-02-13T06:52:20;96643.56;;;3.23;77.13
11347;BME280;5728;42.722;23.258;2023-02-13T06:54:47;96636.47;;;3.37;77.54
11347;BME280;5728;42.722;23.258;2023-02-13T06:57:15;96642.06;;;3.28;77.62
11347;BME280;5728;42.722;23.258;2023-02-13T06:59:42;96636.94;;;3.28;77.05
11347;BME280;5728;42.722;23.258;2023-02-13T07:02:09;96635.94;;;3.25;77.63
11347;BME280;5728;42.722;23.258;2023-02-13T07:04:36;96645.34;;;3.45;75.40
11347;BME280;5728;42.722;23.258;2023-02-13T07:07:03;96638.81;;;3.53;74.80
11347;BME280;5728;42.722;23.258;2023-02-13T07:09:30;96647.06;;;3.25;75.60
11347;BME280;5728;42.722;23.258;2023-02-13T07:11:57;96646.94;;;3.43;75.53
11347;BME280;5728;42.722;23.258;2023-02-13T07:14:25;96640.69;;;3.36;75.61
11347;BME280;5728;42.722;23.258;2023-02-13T07:16:52;96649.28;;;3.17;77.05
11347;BME280;5728;42.722;23.258;2023-02-13T07:19:18;96636.97;;;3.49;76.47
11347;BME280;5728;42.722;23.258;2023-02-13T07:21:45;96645.19;;;3.83;74.46
11347;BME280;5728;42.722;23.258;2023-02-13T07:24:12;96644.38;;;3.43;75.71
11347;BME280;5728;42.722;23.258;2023-02-13T07:26:38;96644.56;;;3.68;75.93
11347;BME280;5728;42.722;23.258;2023-02-13T07:29:05;96645.84;;;3.57;74.86
11347;BME280;5728;42.722;23.258;2023-02-13T07:31:34;96645.97;;;3.39;76.59
11347;BME280;5728;42.722;23.258;2023-02-13T07:34:00;96646.97;;;3.63;75.55
11347;BME280;5728;42.722;23.258;2023-02-13T07:36:27;96650.47;;;3.65;76.90
11347;BME280;5728;42.722;23.258;2023-02-13T07:38:54;96648.91;;;3.90;76.67
11347;BME280;5728;42.722;23.258;2023-02-13T07:41:21;96648.47;;;3.79;77.33
11347;BME280;5728;42.722;23.258;2023-02-13T07:43:50;96643.59;;;3.85;77.13
11347;BME280;5728;42.722;23.258;2023-02-13T07:46:16;96650.84;;;3.95;77.46
11347;BME280;5728;42.722;23.258;2023-02-13T07:48:45;96641.06;;;3.86;77.74
11347;BME280;5728;42.722;23.258;2023-02-13T07:51:11;96640.91;;;4.04;77.90
11347;BME280;5728;42.722;23.258;2023-02-13T07:53:38;96648.34;;;3.76;77.16
11347;BME280;5728;42.722;23.258;2023-02-13T07:56:05;96647.44;;;3.96;77.72
11347;BME280;5728;42.722;23.258;2023-02-13T07:58:32;96646.81;;;4.02;77.65
11347;BME280;5728;42.722;23.258;2023-02-13T08:01:05;96652.22;;;3.87;76.90
11347;BME280;5728;42.722;23.258;2023-02-13T08:03:31;96648.00;;;4.10;77.71
11347;BME280;5728;42.722;23.258;2023-02-13T08:05:59;96650.97;;;4.20;78.71
11347;BME280;5728;42.722;23.258;2023-02-13T08:08:26;96662.34;;;3.84;77.15
11347;BME280;5728;42.722;23.258;2023-02-13T08:10:53;96648.78;;;3.86;78.64
11347;BME280;5728;42.722;23.258;2023-02-13T08:13:38;96651.97;;;3.81;78.17
11347;BME280;5728;42.722;23.258;2023-02-13T08:16:05;96638.19;;;3.79;79.35
11347;BME280;5728;42.722;23.258;2023-02-13T08:18:32;96643.81;;;3.91;78.28
11347;BME280;5728;42.722;23.258;2023-02-13T08:21:01;96640.00;;;4.24;76.87
11347;BME280;5728;42.722;23.258;2023-02-13T08:23:28;96636.16;;;4.35;76.03
11347;BME280;5728;42.722;23.258;2023-02-13T08:25:58;96648.63;;;4.48;75.21
11347;BME280;5728;42.722;23.258;2023-02-13T08:28:25;96654.16;;;4.59;75.87
11347;BME280;5728;42.722;23.258;2023-02-13T08:30:52;96649.75;;;4.79;76.33
11347;BME280;5728;42.722;23.258;2023-02-13T08:33:18;96637.25;;;4.88;76.38
11347;BME280;5728;42.722;23.258;2023-02-13T08:35:45;96643.16;;;5.09;77.31
11347;BME280;5728;42.722;23.258;2023-02-13T08:38:13;96651.81;;;5.11;74.84
11347;BME280;5728;42.722;23.258;2023-02-13T08:40:40;96645.03;;;5.13;75.33
11347;BME280;5728;42.722;23.258;2023-02-13T08:43:07;96641.59;;;4.67;74.41
11347;BME280;5728;42.722;23.258;2023-02-13T08:45:34;96648.41;;;5.12;76.45
11347;BME280;5728;42.722;23.258;2023-02-13T08:48:01;96638.09;;;4.65;73.20
11347;BME280;5728;42.722;23.258;2023-02-13T08:50:29;96644.41;;;4.06;74.40
11347;BME280;5728;42.722;23.258;2023-02-13T08:52:57;96645.09;;;3.80;78.36
11347;BME280;5728;42.722;23.258;2023-02-13T08:55:26;96648.63;;;4.48;77.34
11347;BME280;5728;42.722;23.258;2023-02-13T08:57:54;96639.88;;;3.58;78.51
11347;BME280;5728;42.722;23.258;2023-02-13T09:00:20;96637.72;;;3.46;80.82
11347;BME280;5728;42.722;23.258;2023-02-13T09:02:47;96636.19;;;3.93;77.74
11347;BME280;5728;42.722;23.258;2023-02-13T09:05:14;96634.72;;;4.43;77.05
11347;BME280;5728;42.722;23.258;2023-02-13T09:07:41;96638.00;;;3.95;78.20
11347;BME280;5728;42.722;23.258;2023-02-13T09:10:08;96641.16;;;3.47;80.27
11347;BME280;5728;42.722;23.258;2023-02-13T09:12:36;96638.06;;;3.55;79.98
11347;BME280;5728;42.722;23.258;2023-02-13T09:15:03;96632.63;;;4.11;78.59
11347;BME280;5728;42.722;23.258;2023-02-13T09:17:30;96640.00;;;4.24;78.29
11347;BME280;5728;42.722;23.258;2023-02-13T09:19:57;96632.06;;;4.40;76.67
11347;BME280;5728;42.722;23.258;2023-02-13T09:22:23;96625.06;;;4.36;75.66
11347;BME280;5728;42.722;23.258;2023-02-13T09:24:50;96638.81;;;3.94;75.83
11347;BME280;5728;42.722;23.258;2023-02-13T09:27:17;96635.66;;;4.01;78.22
11347;BME280;5728;42.722;23.258;2023-02-13T09:29:45;96636.59;;;4.03;77.07
11347;BME280;5728;42.722;23.258;2023-02-13T09:32:11;96632.31;;;3.81;78.73
11347;BME280;5728;42.722;23.258;2023-02-13T09:34:38;96623.13;;;4.09;77.75
11347;BME280;5728;42.722;23.258;2023-02-13T09:37:05;96634.94;;;3.83;78.55
11347;BME280;5728;42.722;23.258;2023-02-13T09:39:31;96627.81;;;3.76;78.29
11347;BME280;5728;42.722;23.258;2023-02-13T09:41:59;96661.47;;;3.83;78.40
11347;BME280;5728;42.722;23.258;2023-02-13T09:44:32;96632.19;;;3.58;78.60
11347;BME280;5728;42.722;23.258;2023-02-13T09:47:08;96621.53;;;3.07;80.61
11347;BME280;5728;42.722;23.258;2023-02-13T09:49:42;96621.38;;;3.23;80.48
11347;BME280;5728;42.722;23.258;2023-02-13T09:52:09;96607.44;;;3.58;79.74
11347;BME280;5728;42.722;23.258;2023-02-13T09:54:36;96617.22;;;3.89;77.12
11347;BME280;5728;42.722;23.258;2023-02-13T09:57:07;96604.56;;;4.16;79.02
11347;BME280;5728;42.722;23.258;2023-02-13T09:59:44;96598.97;;;4.48;75.37
11347;BME280;5728;42.722;23.258;2023-02-13T10:02:25;96598.47;;;4.12;75.35
11347;BME280;5728;42.722;23.258;2023-02-13T10:05:02;96596.38;;;4.02;75.98
11347;BME280;5728;42.722;23.258;2023-02-13T10:07:39;96592.63;;;4.16;76.40
11347;BME280;5728;42.722;23.258;2023-02-13T10:10:18;96590.75;;;4.34;76.44
11347;BME280;5728;42.722;23.258;2023-02-13T10:12:55;96585.38;;;4.50;73.93
11347;BME280;5728;42.722;23.258;2023-02-13T10:15:31;96579.56;;;4.80;72.73
11347;BME280;5728;42.722;23.258;2023-02-13T10:18:04;96573.84;;;4.63;72.63
11347;BME280;5728;42.722;23.258;2023-02-13T10:20:36;96572.50;;;4.98;74.47
11347;BME280;5728;42.722;23.258;2023-02-13T10:23:15;96569.31;;;5.05;71.90
11347;BME280;5728;42.722;23.258;2023-02-13T10:25:48;96557.59;;;5.13;72.24
11347;BME280;5728;42.722;23.258;2023-02-13T10:28:27;96559.38;;;5.67;71.64
11347;BME280;5728;42.722;23.258;2023-02-13T10:30:57;96550.75;;;5.92;69.58
11347;BME280;5728;42.722;23.258;2023-02-13T10:33:31;96544.47;;;6.39;69.84
11347;BME280;5728;42.722;23.258;2023-02-13T10:36:02;96537.53;;;6.68;65.51
11347;BME280;5728;42.722;23.258;2023-02-13T10:38:32;96535.19;;;7.08;64.35
11347;BME280;5728;42.722;23.258;2023-02-13T10:41:11;96532.38;;;6.99;65.10
11347;BME280;5728;42.722;23.258;2023-02-13T10:43:50;96526.94;;;6.88;64.18
11347;BME280;5728;42.722;23.258;2023-02-13T10:46:24;96519.47;;;7.32;65.59
11347;BME280;5728;42.722;23.258;2023-02-13T10:49:05;96522.09;;;7.00;63.44
11347;BME280;5728;42.722;23.258;2023-02-13T10:51:39;96517.00;;;7.72;62.90
11347;BME280;5728;42.722;23.258;2023-02-13T10:54:23;96521.13;;;8.40;59.61
11347;BME280;5728;42.722;23.258;2023-02-13T10:56:59;96516.56;;;8.28;59.68
11347;BME280;5728;42.722;23.258;2023-02-13T10:59:41;96508.53;;;8.57;59.94
11347;BME280;5728;42.722;23.258;2023-02-13T11:02:20;96494.88;;;8.64;58.58
11347;BME280;5728;42.722;23.258;2023-02-13T11:04:51;96504.66;;;9.25;58.91
11347;BME280;5728;42.722;23.258;2023-02-13T11:07:22;96485.34;;;8.61;56.95
11347;BME280;5728;42.722;23.258;2023-02-13T11:09:52;96489.16;;;8.78;59.37
11347;BME280;5728;42.722;23.258;2023-02-13T11:12:23;96491.53;;;9.14;56.49
11347;BME280;5728;42.722;23.258;2023-02-13T11:14:55;96489.47;;;8.96;54.46
11347;BME280;5728;42.722;23.258;2023-02-13T11:17:23;96485.38;;;9.06;56.58
11347;BME280;5728;42.722;23.258;2023-02-13T11:19:54;96483.41;;;8.09;56.91
11347;BME280;5728;42.722;23.258;2023-02-13T11:22:28;96478.47;;;8.20;56.64
11347;BME280;5728;42.722;23.258;2023-02-13T11:24:58;96460.88;;;8.43;55.14
11347;BME280;5728;42.722;23.258;2023-02-13T11:27:27;96461.13;;;9.01;52.81
11347;BME280;5728;42.722;23.258;2023-02-13T11:29:57;96459.00;;;9.84;52.27
11347;BME280;5728;42.722;23.258;2023-02-13T11:32:25;96450.00;;;9.60;51.97
11347;BME280;5728;42.722;23.258;2023-02-13T11:34:54;96447.81;;;9.86;50.88
11347;BME280;5728;42.722;23.258;2023-02-13T11:37:26;96446.59;;;9.64;51.02
11347;BME280;5728;42.722;23.258;2023-02-13T11:39:54;96429.69;;;9.88;50.48
11347;BME280;5728;42.722;23.258;2023-02-13T11:42:28;96440.88;;;9.84;48.99
11347;BME280;5728;42.722;23.258;2023-02-13T11:44:58;96427.75;;;9.75;51.44
11347;BME280;5728;42.722;23.258;2023-02-13T11:47:32;96423.41;;;9.72;50.88
11347;BME280;5728;42.722;23.258;2023-02-13T11:50:01;96421.50;;;10.19;48.88
11347;BME280;5728;42.722;23.258;2023-02-13T11:52:30;96417.22;;;9.07;49.34
11347;BME280;5728;42.722;23.258;2023-02-13T11:54:59;96416.50;;;10.37;47.05
11347;BME280;5728;42.722;23.258;2023-02-13T11:57:29;96417.16;;;9.03;49.04
11347;BME280;5728;42.722;23.258;2023-02-13T11:59:57;96399.28;;;9.16;49.80
11347;BME280;5728;42.722;23.258;2023-02-13T12:02:25;96403.44;;;9.63;50.80
11347;BME280;5728;42.722;23.258;2023-02-13T12:04:55;96392.84;;;10.86;48.35
11347;BME280;5728;42.722;23.258;2023-02-13T12:07:41;96394.81;;;11.16;44.56
11347;BME280;5728;42.722;23.258;2023-02-13T12:10:17;96376.72;;;11.24;42.82
11347;BME280;5728;42.722;23.258;2023-02-13T12:12:52;96396.34;;;10.93;43.58
11347;BME280;5728;42.722;23.258;2023-02-13T12:15:21;96391.63;;;10.51;44.48
11347;BME280;5728;42.722;23.258;2023-02-13T12:18:01;96385.66;;;10.61;44.61
11347;BME280;5728;42.722;23.258;2023-02-13T12:20:39;96388.00;;;11.29;43.42
11347;BME280;5728;42.722;23.258;2023-02-13T12:23:19;96385.09;;;10.91;43.94
11347;BME280;5728;42.722;23.258;2023-02-13T12:26:15;96380.94;;;11.10;44.62
11347;BME280;5728;42.722;23.258;2023-02-13T12:31:54;96376.16;;;11.67;41.21
11347;BME280;5728;42.722;23.258;2023-02-13T12:34:52;96373.22;;;11.20;42.18
11347;BME280;5728;42.722;23.258;2023-02-13T12:37:34;96369.47;;;12.10;40.61
11347;BME280;5728;42.722;23.258;2023-02-13T12:40:26;96372.75;;;10.67;43.69
11347;BME280;5728;42.722;23.258;2023-02-13T12:43:11;96366.91;;;10.93;42.44
11347;BME280;5728;42.722;23.258;2023-02-13T12:45:47;96357.69;;;11.28;41.86
11347;BME280;5728;42.722;23.258;2023-02-13T12:48:28;96354.09;;;11.11;41.85
11347;BME280;5728;42.722;23.258;2023-02-13T12:51:15;96350.75;;;11.25;41.94
11347;BME280;5728;42.722;23.258;2023-02-13T12:53:57;96347.84;;;12.15;40.98
11347;BME280;5728;42.722;23.258;2023-02-13T12:56:52;96347.59;;;11.69;41.48
11347;BME280;5728;42.722;23.258;2023-02-13T12:59:31;96336.50;;;12.04;41.13
11347;BME280;5728;42.722;23.258;2023-02-13T13:02:17;96341.34;;;11.41;40.84
11347;BME280;5728;42.722;23.258;2023-02-13T13:04:58;96337.13;;;10.48;43.47
11347;BME280;5728;42.722;23.258;2023-02-13T13:07:49;96339.59;;;10.36;43.76
11347;BME280;5728;42.722;23.258;2023-02-13T13:10:40;96331.44;;;10.06;45.56
11347;BME280;5728;42.722;23.258;2023-02-13T13:13:22;96331.31;;;9.94;45.39
11347;BME280;5728;42.722;23.258;2023-02-13T13:15:57;96326.72;;;10.45;43.82
11347;BME280;5728;42.722;23.258;2023-02-13T13:18:35;96325.78;;;11.42;42.92
11347;BME280;5728;42.722;23.258;2023-02-13T13:21:15;96318.69;;;11.19;43.27
11347;BME280;5728;42.722;23.258;2023-02-13T13:23:51;96312.53;;;11.05;42.55
11347;BME280;5728;42.722;23.258;2023-02-13T13:26:29;96323.31;;;10.52;44.27
11347;BME280;5728;42.722;23.258;2023-02-13T13:29:04;96319.72;;;10.38;45.04
11347;BME280;5728;42.722;23.258;2023-02-13T13:31:34;96316.50;;;10.63;44.75
11347;BME280;5728;42.722;23.258;2023-02-13T13:34:09;96316.00;;;10.12;45.58
11347;BME280;5728;42.722;23.258;2023-02-13T13:36:43;96322.50;;;10.58;44.94
11347;BME280;5728;42.722;23.258;2023-02-13T13:39:22;96311.31;;;10.63;45.30